This is the latest recevied weather packets stored in our database for station/object W5ITZ. If no packets are shown the sender has not sent any weather packets the latest 10 day(s).
| Time | Temp. | Humidity | Pressure | Rain* | Wind** | Luminosity | Snow |
|---|---|---|---|---|---|---|---|
| 1777295481 | 25° C | 93% | 1010.7 hPa | 0 mm | - | 107 W/m² | - |
| 1777295178 | 25° C | 93% | 1010.9 hPa | 0 mm | - | 85 W/m² | - |
| 1777294876 | 25° C | 94% | 1010.6 hPa | 0 mm | - | 82 W/m² | - |
| 1777294576 | 25° C | 94% | 1010.7 hPa | 0 mm | - | 55 W/m² | - |
| 1777294272 | 25° C | 94% | 1010.6 hPa | 0 mm | - | 52 W/m² | - |
| 1777293969 | 25° C | 94% | 1010.8 hPa | 0 mm | - | 31 W/m² | - |
| 1777293665 | 25° C | 94% | 1010.5 hPa | 0 mm | - | 29 W/m² | - |
| 1777293360 | 25° C | 94% | 1010.5 hPa | 0 mm | - | 30 W/m² | - |
| 1777293056 | 25° C | 94% | 1010.3 hPa | 0 mm | - | 18 W/m² | - |
| 1777292755 | 25° C | 94% | 1010.2 hPa | 0 mm | - | 16 W/m² | - |
| 1777292451 | 25° C | 94% | 1010.1 hPa | 0 mm | - | 17 W/m² | - |
| 1777292149 | 25° C | 94% | 1009.9 hPa | 0 mm | - | 18 W/m² | - |
| 1777291844 | 25° C | 94% | 1009.9 hPa | 0 mm | - | 16 W/m² | - |
| 1777291541 | 25° C | 94% | 1009.9 hPa | 0 mm | - | 10 W/m² | - |
| 1777291238 | 25° C | 94% | 1009.8 hPa | 0 mm | - | 5 W/m² | - |
| 1777290935 | 25° C | 94% | 1009.3 hPa | 0 mm | - | 5 W/m² | - |
| 1777290632 | 25° C | 94% | 1009.5 hPa | 0 mm | - | 3 W/m² | - |
| 1777290328 | 25° C | 94% | 1009.6 hPa | 0 mm | - | 2 W/m² | - |
| 1777290024 | 25° C | 94% | 1009.4 hPa | 0 mm | - | 1 W/m² | - |
| 1777289720 | 25° C | 94% | 1009.2 hPa | 0 mm | - | 0 W/m² | - |
| 1777289416 | 25° C | 94% | 1009.1 hPa | 0 mm | - | 0 W/m² | - |
| 1777289113 | 25° C | 94% | 1009.1 hPa | 0 mm | - | 0 W/m² | - |
| 1777288809 | 25° C | 94% | 1009 hPa | 0 mm | - | 0 W/m² | - |
| 1777288507 | 25° C | 94% | 1008.9 hPa | 0 mm | - | 0 W/m² | - |
| 1777288203 | 25° C | 94% | 1008.7 hPa | 0 mm | - | 0 W/m² | - |
* Rain latest hour (hover to see other rain measurements)
** Current wind speed in m/s (hover to see current wind gust speed)